createdAt,value
2024-03-04T00:01:47.321Z,21.48
2024-03-04T00:04:14.147Z,22.90
2024-03-04T00:06:40.759Z,22.02
2024-03-04T00:09:09.618Z,22.23
2024-03-04T00:11:36.852Z,22.95
2024-03-04T00:14:03.890Z,22.88
2024-03-04T00:16:30.994Z,22.35
2024-03-04T00:19:00.746Z,22.75
2024-03-04T00:21:31.039Z,21.85
2024-03-04T00:23:58.487Z,22.58
2024-03-04T00:26:24.882Z,23.15
2024-03-04T00:28:51.293Z,23.48
2024-03-04T00:31:18.744Z,23.33
2024-03-04T00:33:45.274Z,23.63
2024-03-04T00:36:11.831Z,24.48
2024-03-04T00:38:38.356Z,23.85
2024-03-04T00:41:05.326Z,23.98
2024-03-04T00:43:31.840Z,22.92
2024-03-04T00:45:59.965Z,24.23
2024-03-04T00:48:26.383Z,25.45
2024-03-04T00:50:53.858Z,25.35
2024-03-04T00:53:20.310Z,25.35
2024-03-04T00:55:46.771Z,26.17
2024-03-04T00:58:13.330Z,25.75
2024-03-04T01:00:39.929Z,24.83
2024-03-04T01:03:06.614Z,25.75
2024-03-04T01:05:33.961Z,26.05
2024-03-04T01:08:00.461Z,26.33
2024-03-04T01:10:27.018Z,28.63
2024-03-04T01:12:53.466Z,28.08
2024-03-04T01:15:19.998Z,27.50
2024-03-04T01:17:48.106Z,26.85
2024-03-04T01:20:15.455Z,26.92
2024-03-04T01:22:42.212Z,27.92
2024-03-04T01:25:10.344Z,28.23
2024-03-04T01:27:37.083Z,30.35
2024-03-04T01:30:04.655Z,30.00
2024-03-04T01:32:31.361Z,30.15
2024-03-04T01:34:57.842Z,30.50
2024-03-04T01:37:24.559Z,30.52
2024-03-04T01:39:51.036Z,31.08
2024-03-04T01:42:18.427Z,33.05
2024-03-04T01:44:44.873Z,31.70
2024-03-04T01:47:18.786Z,33.97
2024-03-04T01:49:46.012Z,34.45
2024-03-04T01:52:13.055Z,35.25
2024-03-04T01:54:42.796Z,34.25
2024-03-04T01:59:47.013Z,36.75
2024-03-04T02:04:47.431Z,36.72
2024-03-04T02:09:56.343Z,38.85
2024-03-04T02:12:23.073Z,37.55
2024-03-04T02:20:13.493Z,37.95
2024-03-04T02:22:40.264Z,39.33
2024-03-04T02:25:07.861Z,39.80
2024-03-04T02:30:12.110Z,40.47
2024-03-04T02:32:39.866Z,41.10
2024-03-04T02:35:09.040Z,42.85
2024-03-04T02:37:36.989Z,42.17
2024-03-04T02:40:07.799Z,42.13
2024-03-04T02:42:35.508Z,44.23
2024-03-04T02:45:02.084Z,43.33
2024-03-04T02:47:28.633Z,43.70
2024-03-04T02:49:55.163Z,44.65
2024-03-04T02:52:21.682Z,46.45
2024-03-04T02:54:48.175Z,46.38
2024-03-04T02:57:15.289Z,47.22
2024-03-04T02:59:43.864Z,47.45
2024-03-04T03:02:10.492Z,47.97
2024-03-04T03:04:37.043Z,48.85
2024-03-04T03:07:03.622Z,49.63
2024-03-04T03:09:30.086Z,49.25
2024-03-04T03:11:57.437Z,48.58
2024-03-04T03:14:24.083Z,47.40
2024-03-04T03:16:50.893Z,49.35
2024-03-04T03:19:27.343Z,48.97
2024-03-04T03:21:54.693Z,52.97
2024-03-04T03:24:21.587Z,49.55
2024-03-04T03:26:48.403Z,53.22
2024-03-04T03:37:21.385Z,52.40
2024-03-04T03:39:48.881Z,50.75
2024-03-04T03:47:59.633Z,51.20
2024-03-04T03:50:26.132Z,54.30
2024-03-04T04:00:37.501Z,54.42
2024-03-04T04:05:46.004Z,52.05
2024-03-04T04:08:12.468Z,53.60
2024-03-04T04:10:39.033Z,52.50
2024-03-04T04:31:53.309Z,57.72
2024-03-04T04:34:19.801Z,57.78
2024-03-04T04:42:10.080Z,59.35
2024-03-04T04:47:32.668Z,58.90
2024-03-04T04:55:29.591Z,61.00
2024-03-04T04:57:58.370Z,59.65
2024-03-04T05:00:24.858Z,62.55
2024-03-04T05:02:53.533Z,60.95
2024-03-04T05:10:59.538Z,60.95
2024-03-04T05:24:06.856Z,60.28
2024-03-04T05:29:28.539Z,61.97
2024-03-04T05:31:59.430Z,60.13
2024-03-04T05:34:26.827Z,63.22
2024-03-04T05:36:53.428Z,60.78
2024-03-04T05:39:22.962Z,63.38
2024-03-04T05:41:52.342Z,65.25
2024-03-04T05:49:27.160Z,63.50
2024-03-04T05:51:54.552Z,64.30
2024-03-04T05:54:21.258Z,64.55
2024-03-04T05:56:47.994Z,65.90
2024-03-04T05:59:15.363Z,63.88
2024-03-04T06:01:43.731Z,65.07
2024-03-04T06:04:10.804Z,64.22
2024-03-04T06:06:37.636Z,63.85
2024-03-04T06:09:05.908Z,65.63
2024-03-04T06:11:32.801Z,62.60
2024-03-04T06:13:59.597Z,63.55
2024-03-04T06:16:26.461Z,63.63
2024-03-04T06:18:53.067Z,65.25
2024-03-04T06:21:19.504Z,64.70
2024-03-04T06:23:46.045Z,63.53
2024-03-04T06:26:12.800Z,63.53
2024-03-04T06:28:39.965Z,62.97
2024-03-04T06:31:07.175Z,64.88
2024-03-04T06:33:44.503Z,63.97
2024-03-04T06:36:18.921Z,63.78
2024-03-04T06:38:46.613Z,64.05
2024-03-04T06:41:13.088Z,62.30
2024-03-04T06:43:39.819Z,65.07
2024-03-04T06:46:06.448Z,64.75
2024-03-04T06:48:32.963Z,64.25
2024-03-04T06:50:59.492Z,61.33
2024-03-04T06:53:25.960Z,61.53
2024-03-04T06:55:52.730Z,60.75
2024-03-04T06:58:20.356Z,61.75
2024-03-04T07:00:48.816Z,62.85
2024-03-04T07:03:15.566Z,57.33
2024-03-04T07:05:42.052Z,63.13
2024-03-04T07:08:08.548Z,64.35
2024-03-04T07:10:35.173Z,59.78
2024-03-04T07:13:02.597Z,60.22
2024-03-04T07:15:29.221Z,59.72
2024-03-04T07:17:56.331Z,57.70
2024-03-04T07:20:23.794Z,57.55
2024-03-04T07:22:50.314Z,57.28
2024-03-04T07:25:16.803Z,58.25
2024-03-04T07:27:43.298Z,56.00
2024-03-04T07:30:10.026Z,57.33
2024-03-04T07:32:36.877Z,54.33
2024-03-04T07:35:03.673Z,53.95
2024-03-04T07:37:30.167Z,53.50
2024-03-04T07:39:56.643Z,52.65
2024-03-04T07:42:25.181Z,49.65
2024-03-04T07:44:51.687Z,51.08
2024-03-04T07:47:18.188Z,49.63
2024-03-04T07:49:44.894Z,49.63
2024-03-04T07:52:11.400Z,50.55
2024-03-04T07:54:37.942Z,49.40
2024-03-04T07:57:10.735Z,50.70
2024-03-04T07:59:44.162Z,49.42
2024-03-04T08:02:10.743Z,47.45
2024-03-04T08:04:37.262Z,46.67
2024-03-04T08:07:04.609Z,46.10
2024-03-04T08:09:31.156Z,48.30
2024-03-04T08:11:57.795Z,46.15
2024-03-04T08:14:24.238Z,45.90
2024-03-04T08:16:50.724Z,46.97
2024-03-04T08:19:17.337Z,43.63
2024-03-04T08:21:45.836Z,45.00
2024-03-04T08:24:12.421Z,43.42
2024-03-04T08:26:38.874Z,41.53
2024-03-04T08:29:05.362Z,40.55
2024-03-04T08:31:34.225Z,41.38
2024-03-04T08:34:00.715Z,40.58
2024-03-04T08:36:27.181Z,39.88
2024-03-04T08:38:53.684Z,40.85
2024-03-04T08:41:20.249Z,39.42
2024-03-04T08:43:48.676Z,38.35
2024-03-04T08:46:15.387Z,41.10
2024-03-04T08:48:43.071Z,38.42
2024-03-04T08:51:09.861Z,38.47
2024-03-04T08:53:37.152Z,37.67
2024-03-04T08:56:05.763Z,40.17
2024-03-04T08:58:33.422Z,40.90
2024-03-04T09:01:01.428Z,40.33
2024-03-04T09:03:28.095Z,40.63
2024-03-04T09:05:54.883Z,40.20
2024-03-04T09:08:21.361Z,40.78
2024-03-04T09:10:49.367Z,41.15
2024-03-04T09:13:16.057Z,41.40
2024-03-04T09:15:42.574Z,41.53
2024-03-04T09:18:09.136Z,43.28
2024-03-04T09:20:35.610Z,40.67
2024-03-04T09:23:02.652Z,40.35
2024-03-04T09:25:29.232Z,41.55
2024-03-04T09:27:55.806Z,42.47
2024-03-04T09:30:23.380Z,43.08
2024-03-04T09:32:49.860Z,40.70
2024-03-04T09:35:17.638Z,41.30
2024-03-04T09:37:45.853Z,37.40
2024-03-04T09:40:12.990Z,37.67
2024-03-04T09:42:46.688Z,39.75
2024-03-04T09:45:13.237Z,40.20
2024-03-04T09:47:44.985Z,41.05
2024-03-04T09:50:11.976Z,40.88
2024-03-04T09:52:38.754Z,41.80
2024-03-04T09:55:05.856Z,40.58
2024-03-04T09:57:33.374Z,43.10
2024-03-04T09:59:59.875Z,42.53
2024-03-04T10:02:26.542Z,42.63
2024-03-04T10:04:53.349Z,42.22
2024-03-04T10:07:20.009Z,44.03
2024-03-04T10:09:46.670Z,44.40
2024-03-04T10:12:13.282Z,44.00
2024-03-04T10:15:04.716Z,45.65
2024-03-04T10:17:31.207Z,47.05
2024-03-04T10:20:25.180Z,44.25
2024-03-04T10:22:52.035Z,42.88
2024-03-04T10:25:19.295Z,43.58
2024-03-04T10:27:50.969Z,43.22
2024-03-04T10:30:25.396Z,44.95
2024-03-04T10:32:57.667Z,42.20
2024-03-04T10:35:26.863Z,43.53
2024-03-04T10:37:57.936Z,44.00
2024-03-04T10:40:24.421Z,44.72
2024-03-04T10:42:50.916Z,43.28
2024-03-04T10:45:18.296Z,43.50
2024-03-04T10:47:46.684Z,43.55
2024-03-04T10:50:16.249Z,44.17
2024-03-04T10:52:45.061Z,43.72
2024-03-04T10:55:13.093Z,43.47
2024-03-04T10:57:43.910Z,44.75
2024-03-04T11:00:21.059Z,44.70
2024-03-04T11:03:10.978Z,43.20
2024-03-04T11:05:41.694Z,45.63
2024-03-04T11:08:20.069Z,44.97
2024-03-04T11:10:48.788Z,43.72
2024-03-04T11:13:38.038Z,44.65
2024-03-04T11:16:11.871Z,44.95
2024-03-04T11:19:08.931Z,44.88
2024-03-04T11:21:35.591Z,43.65
2024-03-04T11:24:05.378Z,44.65
2024-03-04T11:26:32.472Z,45.38
2024-03-04T11:29:01.515Z,46.90
2024-03-04T11:31:29.465Z,44.85
2024-03-04T11:34:01.188Z,43.22
2024-03-04T11:36:28.644Z,45.80
2024-03-04T11:38:56.842Z,45.92
2024-03-04T11:41:56.792Z,48.28
2024-03-04T11:44:30.241Z,46.45
2024-03-04T11:46:58.042Z,45.47
2024-03-04T11:49:45.662Z,46.00
2024-03-04T11:52:21.401Z,47.03
2024-03-04T11:54:49.465Z,46.33
2024-03-04T11:57:17.669Z,48.03
2024-03-04T12:00:10.728Z,48.13
2024-03-04T12:02:40.506Z,50.13
2024-03-04T12:05:12.774Z,47.85
2024-03-04T12:07:39.439Z,45.92
2024-03-04T12:10:13.219Z,46.20
2024-03-04T12:12:44.774Z,45.72
2024-03-04T12:15:11.620Z,45.60
2024-03-04T12:17:38.673Z,45.00
2024-03-04T12:20:08.421Z,45.97
2024-03-04T12:22:36.202Z,45.22
2024-03-04T12:25:09.280Z,45.97
2024-03-04T12:27:37.666Z,45.33
2024-03-04T12:30:18.568Z,46.47
2024-03-04T12:32:50.447Z,45.10
2024-03-04T12:35:26.845Z,48.58
2024-03-04T12:37:55.465Z,47.60
2024-03-04T12:40:23.356Z,47.53
2024-03-04T12:42:59.626Z,46.67
2024-03-04T12:45:27.692Z,47.20
2024-03-04T12:47:57.238Z,45.72
2024-03-04T12:50:29.212Z,49.53
2024-03-04T12:52:57.456Z,48.85
2024-03-04T12:55:25.655Z,48.13
2024-03-04T12:57:57.713Z,50.38
2024-03-04T13:00:25.110Z,49.95
2024-03-04T13:02:51.908Z,48.53
2024-03-04T13:05:19.281Z,48.88
2024-03-04T13:07:46.127Z,45.70
2024-03-04T13:10:13.630Z,45.05
2024-03-04T13:12:43.832Z,43.67
2024-03-04T13:15:11.646Z,43.03
2024-03-04T13:17:46.084Z,43.53
2024-03-04T13:20:16.048Z,45.20
2024-03-04T13:22:50.850Z,44.25
2024-03-04T13:25:19.122Z,48.05
2024-03-04T13:27:47.263Z,45.97
2024-03-04T13:30:15.093Z,47.10
2024-03-04T13:32:41.754Z,45.50
2024-03-04T13:35:11.469Z,45.13
2024-03-04T13:37:38.618Z,46.75
2024-03-04T13:40:11.688Z,42.63
2024-03-04T13:42:38.399Z,43.80
2024-03-04T13:45:08.140Z,44.58
2024-03-04T13:47:35.298Z,44.67
2024-03-04T13:50:01.888Z,43.58
2024-03-04T13:52:28.335Z,44.45
2024-03-04T13:54:54.845Z,43.28
2024-03-04T13:57:21.413Z,41.92
2024-03-04T13:59:48.596Z,42.88
2024-03-04T14:02:15.074Z,42.42
2024-03-04T14:04:41.732Z,40.75
2024-03-04T14:07:08.286Z,44.60
2024-03-04T14:09:34.857Z,43.15
2024-03-04T14:12:01.365Z,45.38
2024-03-04T14:14:29.718Z,43.35
2024-03-04T14:16:56.542Z,43.53
2024-03-04T14:19:23.250Z,43.58
2024-03-04T14:21:49.882Z,42.03
2024-03-04T14:24:16.345Z,44.00
2024-03-04T14:26:42.912Z,42.75
2024-03-04T14:29:09.518Z,41.83
2024-03-04T14:31:36.050Z,42.83
2024-03-04T14:34:02.698Z,41.92
2024-03-04T14:36:29.981Z,43.50
2024-03-04T14:38:56.797Z,40.75
2024-03-04T14:41:23.341Z,39.78
2024-03-04T14:43:50.080Z,39.83
2024-03-04T14:46:16.956Z,39.67
2024-03-04T14:48:46.893Z,41.50
2024-03-04T14:51:15.415Z,40.50
2024-03-04T14:53:43.575Z,40.10
2024-03-04T14:56:10.106Z,40.65
2024-03-04T14:58:36.863Z,41.35
2024-03-04T15:01:03.784Z,40.97
2024-03-04T15:03:32.146Z,42.05
2024-03-04T15:05:58.710Z,42.05
2024-03-04T15:08:25.196Z,41.85
2024-03-04T15:10:51.767Z,41.60
2024-03-04T15:13:20.817Z,41.03
2024-03-04T15:15:47.259Z,42.58
2024-03-04T15:18:18.584Z,41.65
2024-03-04T15:20:48.766Z,42.00
2024-03-04T15:23:15.512Z,43.15
2024-03-04T15:25:42.779Z,41.88
2024-03-04T15:28:11.375Z,44.25
2024-03-04T15:30:38.051Z,41.70
2024-03-04T15:33:05.027Z,42.50
2024-03-04T15:35:32.771Z,41.75
2024-03-04T15:37:59.309Z,45.05
2024-03-04T15:40:26.838Z,41.83
2024-03-04T15:42:54.425Z,41.83
2024-03-04T15:45:21.043Z,41.67
2024-03-04T15:47:48.345Z,41.30
2024-03-04T15:50:17.117Z,40.63
2024-03-04T15:52:45.525Z,41.50
2024-03-04T15:55:19.238Z,40.30
2024-03-04T15:57:45.842Z,42.63
2024-03-04T16:00:15.722Z,40.60
2024-03-04T16:02:43.267Z,40.60
2024-03-04T16:05:11.434Z,41.17
2024-03-04T16:07:38.242Z,41.33
2024-03-04T16:10:08.701Z,40.20
2024-03-04T16:12:35.335Z,40.20
2024-03-04T16:15:01.962Z,41.60
2024-03-04T16:17:28.510Z,40.90
2024-03-04T16:19:55.256Z,40.58
2024-03-04T16:22:21.809Z,41.55
2024-03-04T16:24:48.361Z,41.30
2024-03-04T16:27:17.526Z,42.47
2024-03-04T16:29:44.090Z,42.33
2024-03-04T16:32:10.717Z,42.58
2024-03-04T16:34:37.245Z,41.35
2024-03-04T16:37:05.156Z,39.85
2024-03-04T16:39:32.527Z,41.20
2024-03-04T16:41:59.109Z,41.58
2024-03-04T16:44:26.502Z,41.88
2024-03-04T16:46:53.195Z,40.58
2024-03-04T16:49:20.227Z,41.90
2024-03-04T16:51:48.303Z,40.78
2024-03-04T16:54:15.627Z,40.55
2024-03-04T16:56:46.436Z,41.25
2024-03-04T16:59:13.238Z,40.92
2024-03-04T17:01:43.398Z,39.90
2024-03-04T17:04:12.685Z,36.85
2024-03-04T17:06:39.157Z,37.80
2024-03-04T17:09:05.654Z,37.47
2024-03-04T17:11:32.265Z,37.03
2024-03-04T17:13:58.839Z,36.85
2024-03-04T17:16:25.366Z,36.72
2024-03-04T17:18:51.937Z,37.45
2024-03-04T17:21:18.780Z,36.92
2024-03-04T17:23:45.478Z,35.65
2024-03-04T17:26:11.951Z,35.97
2024-03-04T17:28:38.462Z,34.90
2024-03-04T17:31:05.736Z,35.25
2024-03-04T17:33:33.721Z,34.88
2024-03-04T17:36:00.273Z,33.15
2024-03-04T17:38:27.594Z,33.90
2024-03-04T17:40:54.667Z,33.92
2024-03-04T17:43:22.147Z,34.70
2024-03-04T17:45:48.621Z,33.33
2024-03-04T17:48:15.204Z,34.47
2024-03-04T17:50:42.746Z,33.08
2024-03-04T17:53:09.252Z,33.22
2024-03-04T17:55:36.583Z,33.45
2024-03-04T17:58:04.072Z,32.63
2024-03-04T18:00:30.638Z,33.78
2024-03-04T18:02:57.187Z,33.92
2024-03-04T18:05:23.700Z,35.13
2024-03-04T18:07:50.309Z,34.45
2024-03-04T18:10:17.020Z,32.80
2024-03-04T18:12:44.298Z,33.55
2024-03-04T18:15:11.182Z,33.10
2024-03-04T18:17:37.742Z,33.85
2024-03-04T18:20:04.542Z,32.13
2024-03-04T18:22:31.190Z,32.80
2024-03-04T18:24:58.508Z,32.92
2024-03-04T18:27:25.245Z,32.35
2024-03-04T18:29:51.703Z,33.25
2024-03-04T18:32:18.424Z,32.33
2024-03-04T18:34:44.974Z,33.80
2024-03-04T18:37:12.501Z,34.08
2024-03-04T18:39:38.965Z,33.30
2024-03-04T18:42:05.504Z,32.05
2024-03-04T18:44:32.761Z,34.47
2024-03-04T18:46:59.298Z,31.17
2024-03-04T18:49:25.890Z,33.90
2024-03-04T18:51:53.839Z,31.98
2024-03-04T18:54:20.271Z,33.25
2024-03-04T18:56:47.777Z,33.47
2024-03-04T18:59:14.432Z,32.80
2024-03-04T19:01:41.828Z,31.50
2024-03-04T19:04:09.163Z,32.75
2024-03-04T19:06:35.695Z,32.92
2024-03-04T19:09:03.014Z,33.47
2024-03-04T19:11:29.664Z,32.88
2024-03-04T19:13:56.127Z,31.95
2024-03-04T19:16:22.846Z,33.38
2024-03-04T19:18:49.347Z,32.95
2024-03-04T19:21:19.464Z,35.08
2024-03-04T19:23:45.993Z,32.55
2024-03-04T19:26:19.662Z,33.10
2024-03-04T19:28:46.638Z,33.13
2024-03-04T19:31:23.812Z,32.55
2024-03-04T19:33:53.532Z,31.85
2024-03-04T19:36:21.727Z,33.45
2024-03-04T19:38:48.677Z,33.40
2024-03-04T19:41:22.381Z,33.85
2024-03-04T19:43:49.923Z,32.72
2024-03-04T19:46:27.196Z,33.72
2024-03-04T19:48:53.959Z,31.95
2024-03-04T19:51:26.055Z,32.95
2024-03-04T19:53:54.431Z,32.88
2024-03-04T19:56:21.176Z,32.38
2024-03-04T19:58:47.994Z,32.65
2024-03-04T20:01:15.131Z,32.90
2024-03-04T20:03:42.491Z,31.63
2024-03-04T20:06:10.051Z,32.53
2024-03-04T20:08:36.958Z,33.17
2024-03-04T20:11:04.346Z,33.47
2024-03-04T20:13:31.357Z,31.40
2024-03-04T20:15:58.263Z,31.65
2024-03-04T20:18:24.710Z,29.85
2024-03-04T20:20:51.222Z,31.35
2024-03-04T20:23:17.722Z,31.75
2024-03-04T20:25:45.720Z,30.80
2024-03-04T20:28:12.349Z,31.63
2024-03-04T20:30:43.265Z,32.05
2024-03-04T20:33:11.237Z,24.42
2024-03-04T20:35:39.146Z,32.50
2024-03-04T20:38:07.651Z,32.85
2024-03-04T20:40:38.311Z,32.50
2024-03-04T20:43:06.096Z,33.50
2024-03-04T20:45:33.296Z,31.92
2024-03-04T20:48:00.067Z,31.77
2024-03-04T20:50:26.969Z,32.05
2024-03-04T20:52:54.149Z,31.95
2024-03-04T20:55:21.394Z,32.22
2024-03-04T20:57:48.129Z,31.70
2024-03-04T21:00:16.407Z,32.35
2024-03-04T21:02:48.388Z,33.03
2024-03-04T21:05:16.781Z,32.88
2024-03-04T21:07:47.218Z,33.60
2024-03-04T21:10:19.888Z,32.22
2024-03-04T21:12:49.852Z,32.15
2024-03-04T21:15:16.889Z,31.70
2024-03-04T21:17:44.491Z,30.75
2024-03-04T21:20:13.415Z,30.20
2024-03-04T21:22:42.098Z,31.95
2024-03-04T21:25:09.566Z,32.15
2024-03-04T21:27:40.989Z,31.70
2024-03-04T21:30:08.889Z,31.58
2024-03-04T21:32:35.438Z,32.28
2024-03-04T21:35:03.083Z,32.30
2024-03-04T21:37:32.248Z,31.10
2024-03-04T21:40:01.265Z,32.00
2024-03-04T21:42:28.634Z,31.60
2024-03-04T21:44:55.903Z,30.17
2024-03-04T21:47:22.389Z,32.13
2024-03-04T21:49:48.843Z,32.30
2024-03-04T21:52:15.391Z,30.98
2024-03-04T21:54:42.121Z,32.45
2024-03-04T21:57:08.686Z,32.60
2024-03-04T21:59:35.222Z,30.70
2024-03-04T22:02:01.762Z,31.15
2024-03-04T22:04:28.316Z,32.20
2024-03-04T22:06:57.232Z,32.03
2024-03-04T22:09:23.654Z,32.63
2024-03-04T22:11:50.887Z,31.73
2024-03-04T22:14:18.143Z,31.35
2024-03-04T22:16:45.914Z,31.85
2024-03-04T22:19:16.071Z,32.20
2024-03-04T22:21:42.631Z,31.92
2024-03-04T22:24:09.332Z,30.42
2024-03-04T22:26:36.546Z,33.13
2024-03-04T22:29:07.832Z,31.77
2024-03-04T22:34:03.032Z,33.17
2024-03-04T22:36:29.561Z,32.78
2024-03-04T22:38:56.074Z,31.52
2024-03-04T22:41:22.904Z,31.23
2024-03-04T22:43:51.035Z,31.63
2024-03-04T22:46:18.620Z,33.35
2024-03-04T22:48:45.229Z,32.03
2024-03-04T22:51:11.723Z,30.90
2024-03-04T22:53:38.145Z,31.67
2024-03-04T22:56:05.540Z,32.20
2024-03-04T22:58:33.076Z,33.80
2024-03-04T23:01:05.015Z,32.63
2024-03-04T23:03:31.756Z,32.10
2024-03-04T23:05:59.267Z,31.50
2024-03-04T23:08:26.092Z,31.45
2024-03-04T23:10:52.800Z,32.45
2024-03-04T23:13:20.195Z,32.03
2024-03-04T23:15:47.168Z,29.83
2024-03-04T23:18:13.666Z,31.67
2024-03-04T23:20:40.205Z,32.60
2024-03-04T23:23:07.814Z,29.42
2024-03-04T23:25:34.448Z,29.90
2024-03-04T23:28:01.107Z,28.67
2024-03-04T23:30:27.769Z,26.83
2024-03-04T23:32:54.526Z,26.98
2024-03-04T23:35:21.135Z,26.83
2024-03-04T23:37:47.605Z,26.27
2024-03-04T23:40:15.286Z,25.95
2024-03-04T23:42:43.464Z,26.02
2024-03-04T23:45:13.287Z,25.40
2024-03-04T23:47:40.785Z,26.45
2024-03-04T23:50:08.806Z,27.40
2024-03-04T23:52:37.901Z,26.40
2024-03-04T23:55:08.058Z,26.30
2024-03-04T23:57:35.533Z,26.38
